Time;durP1;ratioP1;P1;durP2;ratioP2;P2;SDS_P1;SDS_P2;PMS_P1;PMS_P2;Temp;Humidity;BMP_temperature;BMP_pressure;BME280_temperature;BME280_humidity;BME280_pressure;Samples;Min_cycle;Max_cycle;Signal;HPM_P1;HPM_P2
2022/04/26 03:37:31;;;;;;;6.13;4.40;;;8.20;99.90;;;;;;4898489;29;20056;-90
2022/04/26 03:40:06;;;;;;;8.00;5.18;;;7.10;99.90;;;;;;4899429;29;20064;-90
2022/04/26 03:42:35;;;;;;;9.73;5.57;;;6.80;99.90;;;;;;4868033;29;20498;-89
2022/04/26 03:45:01;;;;;;;8.32;5.20;;;6.70;99.90;;;;;;4882801;29;20491;-90
2022/04/26 03:47:30;;;;;;;5.50;4.38;;;6.70;99.90;;;;;;4882883;29;20405;-90
2022/04/26 03:49:56;;;;;;;12.90;4.75;;;6.70;99.90;;;;;;4883452;29;20048;-90
2022/04/26 03:52:24;;;;;;;6.97;4.47;;;6.70;99.90;;;;;;4868069;29;20135;-90
2022/04/26 03:54:50;;;;;;;6.30;3.87;;;6.60;99.90;;;;;;4867603;29;20455;-90
2022/04/26 03:57:25;;;;;;;10.20;5.37;;;6.50;99.90;;;;;;4883136;29;20044;-90
2022/04/26 03:59:54;;;;;;;7.13;5.05;;;7.70;99.90;;;;;;4884969;29;20083;-90
2022/04/26 04:02:19;;;;;;;8.20;4.85;;;6.60;99.90;;;;;;4902187;29;20131;-90
2022/04/26 04:04:55;;;;;;;;;;;;;;;;;;;;;
2022/04/26 04:07:26;;;;;;;6.90;4.05;;;5.80;99.90;;;;;;4902534;29;20048;-90
2022/04/26 04:09:54;;;;;;;7.85;5.35;;;6.60;99.90;;;;;;4887430;29;20048;-89
2022/04/26 04:12:31;;;;;;;8.18;5.10;;;6.50;99.90;;;;;;4886402;29;20055;-90
2022/04/26 04:14:56;;;;;;;7.57;5.15;;;6.50;99.90;;;;;;4871017;29;20048;-89
2022/04/26 04:17:25;;;;;;;11.20;6.10;;;6.40;99.90;;;;;;4887334;29;20048;-90
2022/04/26 04:19:57;;;;;;;6.43;4.95;;;6.50;99.90;;;;;;4886981;29;20111;-89
2022/04/26 04:22:23;;;;;;;16.35;4.88;;;6.50;99.90;;;;;;4886447;29;20048;-89
2022/04/26 04:24:51;;;;;;;7.27;5.23;;;7.00;99.90;;;;;;4851936;29;20040;-89
2022/04/26 04:27:17;;;;;;;7.15;4.82;;;6.40;99.90;;;;;;4879500;29;20137;-89
2022/04/26 04:29:44;;;;;;;8.63;4.80;;;6.50;99.90;;;;;;4884691;29;20059;-90
2022/04/26 04:32:10;;;;;;;;;;;7.90;99.90;;;;;;4885916;29;20044;-89
2022/04/26 04:34:39;;;;;;;10.20;4.22;;;6.50;99.90;;;;;;4899423;29;19930;-89
2022/04/26 04:37:15;;;;;;;6.32;4.55;;;6.40;99.90;;;;;;4886622;29;20048;-90
2022/04/26 04:39:41;;;;;;;6.72;4.65;;;6.60;99.90;;;;;;4899007;29;20107;-89
2022/04/26 04:42:07;;;;;;;8.47;4.87;;;5.80;99.90;;;;;;4904456;29;20173;-90
2022/04/26 04:44:33;;;;;;;;;;;6.60;99.90;;;;;;4886908;29;20122;-90
2022/04/26 04:47:04;;;;;;;12.38;4.70;;;6.60;99.90;;;;;;4904056;29;20441;-90
2022/04/26 04:49:35;;;;;;;12.93;5.30;;;6.70;99.90;;;;;;4904378;29;20066;-89
2022/04/26 04:52:01;;;;;;;7.57;3.20;;;6.80;99.90;;;;;;4883851;29;20130;-93
2022/04/26 04:54:37;;;;;;;;;;;;;;;;;;;;;
2022/04/26 04:57:04;;;;;;;6.28;3.88;;;6.70;99.90;;;;;;4920303;29;20525;-90
2022/04/26 04:59:30;;;;;;;7.30;3.58;;;6.80;99.90;;;;;;4901637;29;20054;-93
2022/04/26 05:02:05;;;;;;;5.90;3.27;;;6.70;99.90;;;;;;4904125;29;20040;-89
2022/04/26 05:04:31;;;;;;;5.20;4.15;;;6.60;99.90;;;;;;4901708;29;20114;-93
2022/04/26 05:06:57;;;;;;;8.27;4.30;;;8.20;99.90;;;;;;4887950;29;20094;-89
2022/04/26 05:09:23;;;;;;;9.33;5.10;;;6.80;99.90;;;;;;4902846;29;20048;-90
2022/04/26 05:11:48;;;;;;;6.93;4.40;;;6.90;99.90;;;;;;4903818;29;20454;-89
2022/04/26 05:14:14;;;;;;;4.10;3.50;;;7.90;99.90;;;;;;4902654;29;20596;-89
2022/04/26 05:16:48;;;;;;;9.70;4.27;;;7.80;99.90;;;;;;4918258;29;20066;-89
2022/04/26 05:19:20;;;;;;;6.18;3.55;;;7.00;99.90;;;;;;4887624;29;20126;-90
2022/04/26 05:21:46;;;;;;;4.50;3.45;;;7.00;99.90;;;;;;4916407;29;20051;-90
2022/04/26 05:26:59;;;;;;;8.93;3.55;;;7.10;99.90;;;;;;4919851;29;20052;-89
2022/04/26 05:29:36;;;;;;;5.43;3.95;;;7.00;99.90;;;;;;4887687;29;20397;-89
2022/04/26 05:32:04;;;;;;;4.95;3.30;;;7.70;99.90;;;;;;4903075;29;20062;-91
2022/04/26 05:34:37;;;;;;;5.88;3.45;;;7.10;99.90;;;;;;4898938;29;20040;-90
2022/04/26 05:37:13;;;;;;;4.53;2.97;;;7.10;99.90;;;;;;4886957;29;20047;-92
2022/04/26 05:39:42;;;;;;;9.75;3.70;;;7.20;99.90;;;;;;4894326;29;20476;-90
2022/04/26 05:42:17;;;;;;;4.32;3.13;;;8.50;99.90;;;;;;4899411;29;20056;-92
2022/04/26 05:44:45;;;;;;;5.75;3.33;;;6.70;99.90;;;;;;4884681;29;20043;-90
2022/04/26 05:47:17;;;;;;;4.00;2.60;;;7.40;99.90;;;;;;4883925;29;20047;-90
2022/04/26 05:49:45;;;;;;;6.40;3.58;;;7.40;99.90;;;;;;4902798;29;20508;-90
2022/04/26 05:52:11;;;;;;;4.35;2.70;;;7.60;99.90;;;;;;4883318;29;20413;-90
2022/04/26 05:54:42;;;;;;;6.33;3.03;;;7.60;99.90;;;;;;4884250;29;20048;-90
2022/04/26 05:57:11;;;;;;;6.45;3.50;;;7.50;99.90;;;;;;4897928;29;20131;-89
2022/04/26 05:59:39;;;;;;;5.78;3.50;;;7.60;99.90;;;;;;4871719;29;20462;-89
2022/04/26 06:02:05;;;;;;;6.60;3.08;;;8.40;99.90;;;;;;4883442;29;20403;-90
2022/04/26 06:04:30;;;;;;;9.47;3.60;;;7.70;99.90;;;;;;4883225;29;20032;-89
2022/04/26 06:06:56;;;;;;;4.93;2.97;;;7.80;99.90;;;;;;4882545;29;20076;-91
2022/04/26 06:09:28;;;;;;;6.50;3.20;;;7.70;99.90;;;;;;4884338;29;20514;-90
2022/04/26 06:11:57;;;;;;;7.05;4.35;;;7.80;99.90;;;;;;4867998;29;20040;-89
2022/04/26 06:14:40;;;;;;;4.40;2.55;;;7.70;99.90;;;;;;4883722;29;20051;-89
2022/04/26 06:17:09;;;;;;;4.18;2.88;;;7.70;99.90;;;;;;4883434;29;20458;-89
2022/04/26 06:19:43;;;;;;;5.63;3.10;;;7.80;99.90;;;;;;4868530;29;20055;-89
2022/04/26 06:22:14;;;;;;;5.68;3.28;;;7.70;99.90;;;;;;4897273;29;20055;-89
2022/04/26 06:24:43;;;;;;;3.65;2.40;;;8.70;99.90;;;;;;4880066;29;20407;-90
2022/04/26 06:27:09;;;;;;;3.55;2.60;;;7.70;99.90;;;;;;4868146;29;20051;-89
2022/04/26 06:29:47;;;;;;;3.80;3.50;;;7.70;99.90;;;;;;4869872;29;20051;-90
2022/04/26 06:32:13;;;;;;;3.33;2.08;;;7.80;99.90;;;;;;4884713;29;20048;-91
2022/04/26 06:34:51;;;;;;;4.00;2.23;;;8.10;99.90;;;;;;4882432;29;20036;-92
2022/04/26 06:37:23;;;;;;;2.78;2.15;;;8.90;99.90;;;;;;4897533;29;20136;-88
2022/04/26 06:39:51;;;;;;;4.95;2.50;;;8.70;99.90;;;;;;4876372;29;20063;-92
2022/04/26 06:42:17;;;;;;;3.17;2.67;;;8.70;99.90;;;;;;4887079;29;20095;-87
2022/04/26 06:44:43;;;;;;;4.37;2.67;;;8.70;99.90;;;;;;4901162;29;20547;-93
2022/04/26 06:47:25;;;;;;;7.43;2.53;;;8.70;99.90;;;;;;4901712;29;20130;-90
2022/04/26 06:49:51;;;;;;;4.13;2.50;;;8.70;99.90;;;;;;4900947;29;20379;-88
2022/04/26 06:52:17;;;;;;;1.80;1.70;;;9.50;99.90;;;;;;4901546;29;20081;-86
2022/04/26 06:54:43;;;;;;;3.37;2.40;;;8.50;99.90;;;;;;4886193;29;20039;-87
2022/04/26 06:57:08;;;;;;;3.33;2.27;;;8.50;99.90;;;;;;4902910;29;20044;-87
2022/04/26 06:59:34;;;;;;;3.80;2.50;;;8.50;99.90;;;;;;4916265;29;20036;-88
2022/04/26 07:02:00;;;;;;;3.17;2.87;;;8.60;99.90;;;;;;4915923;29;20044;-87
2022/04/26 07:04:26;;;;;;;2.23;1.87;;;8.70;99.90;;;;;;4902187;29;20068;-87
2022/04/26 07:06:52;;;;;;;2.38;2.17;;;9.10;99.90;;;;;;4887971;29;20055;-87
2022/04/26 07:09:19;;;;;;;3.40;2.37;;;9.40;99.90;;;;;;4900747;29;20051;-87
2022/04/26 07:11:45;;;;;;;4.68;2.83;;;9.90;99.90;;;;;;4885548;29;20043;-85
2022/04/26 07:14:11;;;;;;;3.72;2.25;;;9.50;99.90;;;;;;4884828;29;20100;-89
2022/04/26 07:16:38;;;;;;;5.68;2.05;;;9.60;99.90;;;;;;4901106;29;20043;-89
2022/04/26 07:19:07;;;;;;;3.00;2.38;;;9.50;99.90;;;;;;4901646;29;20048;-90
2022/04/26 07:21:35;;;;;;;3.20;1.95;;;9.50;99.90;;;;;;4924710;29;20055;-95
2022/04/26 07:24:10;;;;;;;6.47;3.03;;;9.60;99.90;;;;;;4901264;29;20048;-94
2022/04/26 07:26:35;;;;;;;3.22;2.45;;;9.70;99.90;;;;;;4900148;29;20054;-89
2022/04/26 07:29:04;;;;;;;3.13;2.13;;;10.00;99.90;;;;;;4900776;29;20047;-89
2022/04/26 07:31:30;;;;;;;3.15;2.35;;;10.20;99.90;;;;;;4901799;29;20039;-90
2022/04/26 07:34:26;;;;;;;4.20;2.40;;;10.70;99.90;;;;;;4887306;29;20139;-88
2022/04/26 07:37:06;;;;;;;2.40;1.80;;;10.30;99.90;;;;;;4916215;29;20095;-90
2022/04/26 07:39:34;;;;;;;4.88;2.20;;;10.80;99.90;;;;;;4915422;29;20494;-88
2022/04/26 07:42:09;;;;;;;2.53;2.15;;;11.20;99.90;;;;;;4903275;29;20051;-88
2022/04/26 07:44:39;;;;;;;5.82;2.45;;;11.50;99.90;;;;;;4901932;29;20036;-91
2022/04/26 07:47:24;;;;;;;2.90;1.85;;;11.80;99.90;;;;;;4899291;29;20047;-93
2022/04/26 07:49:56;;;;;;;4.38;1.67;;;11.70;99.90;;;;;;4888841;29;20043;-93
2022/04/26 07:52:23;;;;;;;6.25;2.25;;;11.50;99.90;;;;;;4900799;29;20063;-89
2022/04/26 07:54:50;;;;;;;11.73;3.55;;;11.30;99.90;;;;;;4919011;29;20058;-91
2022/04/26 07:57:18;;;;;;;8.75;2.17;;;11.70;99.90;;;;;;4900330;29;20091;-93
2022/04/26 07:59:54;;;;;;;3.97;1.92;;;11.90;99.90;;;;;;4897955;29;20083;-93
2022/04/26 08:02:21;;;;;;;5.40;1.27;;;12.20;99.90;;;;;;4902153;29;20051;-88
2022/04/26 08:04:50;;;;;;;4.30;2.20;;;12.00;99.90;;;;;;4899946;29;20088;-90
2022/04/26 08:07:24;;;;;;;3.67;2.08;;;11.70;99.90;;;;;;4915971;29;20458;-91
2022/04/26 08:09:50;;;;;;;3.67;1.88;;;10.90;99.90;;;;;;4900981;29;20048;-90
2022/04/26 08:12:16;;;;;;;2.07;1.87;;;11.10;99.90;;;;;;4900745;29;20421;-90
2022/04/26 08:14:46;;;;;;;3.03;1.83;;;10.90;99.90;;;;;;4869724;29;20040;-91
2022/04/26 08:17:15;;;;;;;1.50;1.40;;;10.70;99.90;;;;;;4885497;29;20466;-89
2022/04/26 08:19:43;;;;;;;2.40;1.65;;;10.50;99.90;;;;;;4899874;29;20044;-92
2022/04/26 08:22:09;;;;;;;2.60;2.15;;;10.30;99.90;;;;;;4900050;29;20058;-88
2022/04/26 08:27:22;;;;;;;2.53;1.52;;;10.70;99.90;;;;;;4931450;29;20059;-88
2022/04/26 08:29:49;;;;;;;3.58;1.45;;;11.50;99.90;;;;;;4933424;29;20056;-90
2022/04/26 08:32:20;;;;;;;2.70;1.92;;;12.10;99.90;;;;;;4899509;29;20482;-89
2022/04/26 08:34:46;;;;;;;2.97;1.70;;;12.00;99.90;;;;;;4916303;29;20141;-90
2022/04/26 08:37:11;;;;;;;3.20;1.55;;;12.90;99.90;;;;;;4915560;29;20051;-88
2022/04/26 08:39:37;;;;;;;2.10;1.38;;;13.40;99.90;;;;;;4899871;29;20044;-88
2022/04/26 08:42:04;;;;;;;2.90;1.40;;;13.70;99.90;;;;;;4915512;29;20533;-88
2022/04/26 08:44:34;;;;;;;7.82;2.85;;;14.00;99.90;;;;;;4899867;29;20052;-89
2022/04/26 08:52:49;;;;;;;2.38;1.35;;;14.70;99.90;;;;;;4935120;29;20050;-89
2022/04/26 08:55:16;;;;;;;1.80;1.70;;;14.80;99.90;;;;;;4919043;29;20102;-91
2022/04/26 08:57:42;;;;;;;2.03;1.70;;;14.50;99.90;;;;;;4908482;29;20058;-93
2022/04/26 09:00:13;;;;;;;3.20;1.50;;;13.80;99.90;;;;;;4888884;29;20054;-92
2022/04/26 09:02:39;;;;;;;3.72;1.38;;;13.80;99.90;;;;;;4904820;29;20059;-91
2022/04/26 09:05:34;;;;;;;6.25;2.30;;;13.80;99.90;;;;;;4918858;29;20040;-90
2022/04/26 09:08:20;;;;;;;3.13;1.60;;;13.60;99.90;;;;;;4922038;29;20055;-89
2022/04/26 09:10:50;;;;;;;1.73;1.63;;;13.30;99.90;;;;;;4901322;29;20059;-92
2022/04/26 09:13:19;;;;;;;2.15;1.67;;;13.00;99.90;;;;;;4902924;29;20122;-92
2022/04/26 09:15:57;;;;;;;4.05;1.50;;;12.80;99.90;;;;;;4902637;29;20051;-93
2022/04/26 09:18:22;;;;;;;;;;;12.60;99.90;;;;;;4918739;29;20098;-91
2022/04/26 09:20:51;;;;;;;2.00;1.83;;;12.40;99.90;;;;;;4935726;29;20347;-91
2022/04/26 09:23:24;;;;;;;3.42;1.95;;;12.20;99.90;;;;;;4903078;29;20516;-89
2022/04/26 09:26:08;;;;;;;6.03;2.00;;;12.00;99.90;;;;;;4918043;29;20055;-90
2022/04/26 09:28:39;;;;;;;6.35;2.63;;;11.90;99.90;;;;;;4903457;29;20105;-90
2022/04/26 09:31:24;;;;;;;6.40;2.20;;;12.00;99.90;;;;;;4934835;29;20047;-89
2022/04/26 09:33:52;;;;;;;1.92;1.50;;;12.60;99.90;;;;;;4917764;29;20095;-88
2022/04/26 09:36:21;;;;;;;4.38;1.63;;;12.70;99.90;;;;;;4902267;29;20047;-89
2022/04/26 09:38:57;;;;;;;3.03;1.83;;;12.60;99.90;;;;;;4918471;29;20047;-86
2022/04/26 09:41:25;;;;;;;1.63;1.52;;;12.70;99.90;;;;;;4902234;29;20233;-87
2022/04/26 09:44:03;;;;;;;0.93;0.93;;;12.40;99.90;;;;;;4918118;29;20047;-89
2022/04/26 09:46:48;;;;;;;2.13;1.92;;;12.90;99.90;;;;;;4902284;29;20095;-88
2022/04/26 09:49:21;;;;;;;1.60;1.45;;;13.30;99.90;;;;;;4902794;29;20454;-89
2022/04/26 09:52:01;;;;;;;3.40;1.58;;;13.60;99.90;;;;;;4904439;29;20132;-90
2022/04/26 09:54:32;;;;;;;1.65;1.42;;;14.20;99.90;;;;;;4903001;29;20376;-89
2022/04/26 09:56:59;;;;;;;1.70;1.40;;;14.40;99.90;;;;;;4899132;29;20051;-87
2022/04/26 09:59:38;;;;;;;2.72;1.60;;;14.30;99.90;;;;;;4903841;29;20039;-87
2022/04/26 10:02:16;;;;;;;3.42;1.73;;;14.00;99.90;;;;;;4902540;29;20047;-89
2022/04/26 10:04:49;;;;;;;3.47;2.15;;;14.00;99.90;;;;;;4917801;29;20082;-88
2022/04/26 10:07:19;;;;;;;2.67;1.90;;;14.00;99.90;;;;;;4900967;29;20521;-88
2022/04/26 10:09:46;;;;;;;2.80;1.50;;;14.20;99.90;;;;;;4918268;29;20043;-88
2022/04/26 10:12:14;;;;;;;1.58;1.48;;;13.90;99.90;;;;;;4915537;29;20501;-88
2022/04/26 10:14:43;;;;;;;4.03;2.00;;;14.60;99.90;;;;;;4902708;29;20048;-89
2022/04/26 10:17:09;;;;;;;3.53;1.70;;;14.80;99.90;;;;;;4901995;29;20051;-89
2022/04/26 10:19:40;;;;;;;2.15;1.95;;;15.50;99.90;;;;;;4917188;29;20070;-87
2022/04/26 10:22:12;;;;;;;1.70;1.58;;;14.90;99.90;;;;;;4915227;29;21001;-90
2022/04/26 10:24:58;;;;;;;4.78;1.60;;;14.80;99.30;;;;;;4917712;29;20051;-89
2022/04/26 10:27:24;;;;;;;1.48;1.23;;;14.70;98.70;;;;;;4915604;29;20070;-88
2022/04/26 10:29:50;;;;;;;2.60;1.50;;;14.40;98.00;;;;;;4916833;29;20043;-88
2022/04/26 10:32:42;;;;;;;2.40;1.40;;;14.60;97.90;;;;;;4903039;29;20052;-89
2022/04/26 10:35:28;;;;;;;1.95;1.35;;;14.60;94.80;;;;;;4916742;29;20055;-88
2022/04/26 10:38:15;;;;;;;1.65;1.55;;;14.70;94.00;;;;;;4916293;29;20051;-91
2022/04/26 10:41:15;;;;;;;1.63;1.52;;;14.60;94.30;;;;;;4894203;29;20134;-90
2022/04/26 10:44:16;;;;;;;4.03;1.70;;;15.00;94.20;;;;;;4871694;29;20558;-87
2022/04/26 10:46:58;;;;;;;2.58;2.20;;;15.30;94.10;;;;;;4898341;29;20051;-90
2022/04/26 10:49:42;;;;;;;1.70;1.50;;;14.10;94.90;;;;;;4896740;29;20075;-89
2022/04/26 10:52:24;;;;;;;3.40;1.85;;;15.00;93.80;;;;;;4914884;29;20410;-90
2022/04/26 10:55:07;;;;;;;1.67;1.38;;;14.80;94.00;;;;;;4882743;29;20078;-85
2022/04/26 10:57:42;;;;;;;3.17;1.50;;;14.90;94.20;;;;;;4882733;29;20052;-88
2022/04/26 11:00:17;;;;;;;1.70;1.60;;;15.30;93.40;;;;;;4898243;29;20062;-89
2022/04/26 11:02:50;;;;;;;2.13;1.83;;;15.50;92.30;;;;;;4892277;29;20123;-90
2022/04/26 11:05:26;;;;;;;3.65;1.70;;;15.70;91.40;;;;;;4878896;29;20044;-89
2022/04/26 11:07:56;;;;;;;6.18;1.30;;;15.50;89.40;;;;;;4882506;29;20051;-90
2022/04/26 11:10:26;;;;;;;53.38;22.52;;;15.30;91.10;;;;;;4882114;29;20198;-90
2022/04/26 11:12:56;;;;;;;6.38;2.80;;;15.40;90.50;;;;;;4897849;29;20052;-86
2022/04/26 11:15:29;;;;;;;85.35;32.20;;;15.70;91.30;;;;;;4886277;29;20056;-91
2022/04/26 11:18:00;;;;;;;4.80;2.67;;;15.20;90.80;;;;;;4897624;29;20372;-89
2022/04/26 11:20:26;;;;;;;23.70;8.13;;;15.30;91.00;;;;;;4882779;29;20051;-90
2022/04/26 11:22:53;;;;;;;2.55;1.98;;;15.50;90.50;;;;;;4882883;29;20461;-93
2022/04/26 11:28:10;;;;;;;2.60;1.60;;;15.80;87.90;;;;;;4884621;29;20056;-93
2022/04/26 11:30:41;;;;;;;2.38;1.75;;;15.70;87.70;;;;;;4896196;29;20072;-93
2022/04/26 11:33:10;;;;;;;2.50;1.92;;;15.50;87.50;;;;;;4882745;29;20063;-91
2022/04/26 11:35:39;;;;;;;84.85;32.35;;;15.30;88.40;;;;;;4894151;29;20059;-92
2022/04/26 11:38:09;;;;;;;46.40;17.73;;;15.20;88.30;;;;;;4898276;29;20056;-92
2022/04/26 11:40:49;;;;;;;3.15;2.45;;;14.50;87.70;;;;;;4888126;29;20048;-90
2022/04/26 11:43:17;;;;;;;6.82;2.30;;;15.60;85.40;;;;;;4900459;29;20055;-91
2022/04/26 11:45:45;;;;;;;2.88;2.03;;;15.50;86.50;;;;;;4900225;29;20127;-90
2022/04/26 11:48:14;;;;;;;1.90;1.30;;;15.50;85.50;;;;;;4900529;29;20047;-89
2022/04/26 11:50:41;;;;;;;1.77;1.50;;;15.30;84.00;;;;;;4900358;29;20047;-87
2022/04/26 11:53:09;;;;;;;1.30;1.15;;;15.20;85.30;;;;;;4899969;29;20141;-89
2022/04/26 11:55:38;;;;;;;2.63;1.35;;;15.10;84.90;;;;;;4915630;29;20099;-90
2022/04/26 11:58:19;;;;;;;7.70;3.70;;;15.30;85.40;;;;;;4885162;29;20078;-91
2022/04/26 12:01:00;;;;;;;3.15;2.10;;;15.10;83.00;;;;;;4916066;29;20106;-90
2022/04/26 12:03:47;;;;;;;2.75;1.90;;;14.90;81.60;;;;;;4916643;29;20051;-88
2022/04/26 12:06:15;;;;;;;1.98;1.45;;;14.80;83.60;;;;;;4915598;29;20401;-90
2022/04/26 12:08:41;;;;;;;3.00;1.63;;;14.70;83.00;;;;;;4899826;29;20047;-91
2022/04/26 12:11:20;;;;;;;2.97;1.60;;;14.90;82.80;;;;;;4901079;29;20202;-94
2022/04/26 12:14:03;;;;;;;4.20;1.27;;;15.20;81.00;;;;;;4899999;29;20050;-91
2022/04/26 12:16:35;;;;;;;3.53;1.20;;;15.70;83.00;;;;;;4915581;29;20417;-89
2022/04/26 12:19:03;;;;;;;2.85;1.50;;;15.80;82.50;;;;;;4915878;29;20054;-89
2022/04/26 12:21:52;;;;;;;2.05;1.27;;;15.70;81.70;;;;;;4919396;29;20401;-89
2022/04/26 12:24:51;;;;;;;3.63;1.33;;;15.20;79.60;;;;;;4938724;29;20529;-87
2022/04/26 12:27:19;;;;;;;4.55;1.55;;;15.50;77.90;;;;;;4922272;29;20459;-88
2022/04/26 12:29:49;;;;;;;1.45;1.35;;;15.80;81.90;;;;;;4904779;29;20074;-88
2022/04/26 12:32:17;;;;;;;2.08;1.30;;;16.00;81.00;;;;;;4906055;29;20051;-89
2022/04/26 12:35:12;;;;;;;3.45;1.70;;;15.90;79.10;;;;;;4904969;29;20130;-95
2022/04/26 12:37:40;;;;;;;2.95;1.98;;;16.00;75.60;;;;;;4900589;29;20405;-89
2022/04/26 12:40:06;;;;;;;4.45;1.63;;;15.60;79.00;;;;;;4921346;29;20044;-87
2022/04/26 12:42:35;;;;;;;4.22;1.85;;;15.60;79.60;;;;;;4889728;29;20051;-88
2022/04/26 12:45:12;;;;;;;2.28;1.63;;;15.80;80.20;;;;;;4914133;29;20523;-88
2022/04/26 12:50:28;;;;;;;6.32;2.72;;;15.90;79.10;;;;;;4876555;29;20549;-88
2022/04/26 12:53:00;;;;;;;1.60;1.50;;;15.60;78.90;;;;;;4887050;29;20100;-88
2022/04/26 12:55:32;;;;;;;1.75;1.63;;;15.60;78.60;;;;;;4902840;29;20558;-86
2022/04/26 12:58:11;;;;;;;1.55;1.33;;;16.00;77.90;;;;;;4906742;29;20054;-88
2022/04/26 13:00:42;;;;;;;1.45;1.30;;;16.20;76.60;;;;;;4903415;29;20079;-88
2022/04/26 13:03:11;;;;;;;1.95;1.58;;;16.60;77.30;;;;;;4913052;29;20126;-88
2022/04/26 13:05:44;;;;;;;3.50;1.88;;;17.30;77.20;;;;;;4887551;29;20441;-89
2022/04/26 13:08:17;;;;;;;1.55;1.45;;;17.40;73.90;;;;;;4902490;29;20058;-88
2022/04/26 13:10:43;;;;;;;1.73;1.42;;;17.80;74.00;;;;;;4904784;29;20056;-88
2022/04/26 13:13:10;;;;;;;;;;;17.20;74.80;;;;;;4903818;29;20047;-87
2022/04/26 13:15:36;;;;;;;2.55;2.35;;;17.40;72.00;;;;;;4904274;29;19952;-90
2022/04/26 13:18:05;;;;;;;2.38;1.40;;;17.60;74.70;;;;;;4905529;29;20479;-88
2022/04/26 13:20:34;;;;;;;1.65;1.55;;;17.40;73.50;;;;;;4917182;29;20059;-88
2022/04/26 13:23:01;;;;;;;3.95;1.70;;;17.10;72.80;;;;;;4909690;29;20098;-88
2022/04/26 13:25:27;;;;;;;2.38;1.80;;;16.60;72.30;;;;;;4902667;29;20494;-88
2022/04/26 13:27:52;;;;;;;3.22;1.35;;;16.50;72.70;;;;;;4918982;29;20055;-89
2022/04/26 13:30:21;;;;;;;2.28;1.45;;;16.70;72.20;;;;;;4888129;29;20044;-89
2022/04/26 13:32:55;;;;;;;1.55;1.35;;;16.80;71.90;;;;;;4902807;29;20052;-89
2022/04/26 13:35:33;;;;;;;2.15;1.55;;;17.00;71.70;;;;;;4918017;29;20119;-91
2022/04/26 13:37:59;;;;;;;3.10;1.60;;;17.10;72.00;;;;;;4905524;29;20054;-91
2022/04/26 13:40:26;;;;;;;1.63;1.52;;;17.20;71.70;;;;;;4923673;28;20059;-89
2022/04/26 13:43:01;;;;;;;1.65;1.55;;;17.50;70.90;;;;;;4907238;29;20044;-89
2022/04/26 13:45:32;;;;;;;2.08;1.70;;;17.60;70.40;;;;;;4904924;29;20052;-91
2022/04/26 13:48:09;;;;;;;1.60;1.48;;;17.60;69.70;;;;;;4873747;29;20039;-90
2022/04/26 13:50:41;;;;;;;2.00;1.73;;;17.50;69.40;;;;;;4904415;29;20055;-90
2022/04/26 13:53:10;;;;;;;2.92;1.70;;;17.40;69.50;;;;;;4923356;29;20089;-88
2022/04/26 13:55:36;;;;;;;2.67;1.75;;;17.40;68.60;;;;;;4880066;29;20043;-89
2022/04/26 13:58:08;;;;;;;3.75;1.48;;;17.40;69.00;;;;;;4904821;29;20449;-88
2022/04/26 14:00:36;;;;;;;1.40;1.30;;;17.50;69.50;;;;;;4903637;29;20052;-89
2022/04/26 14:03:03;;;;;;;1.27;1.17;;;17.20;68.30;;;;;;4905816;29;20057;-89
2022/04/26 14:05:31;;;;;;;;;;;17.60;68.10;;;;;;4915115;29;20537;-89
2022/04/26 14:08:02;;;;;;;1.33;1.05;;;17.60;66.40;;;;;;4902306;29;19929;-90
2022/04/26 14:10:27;;;;;;;1.55;1.20;;;17.40;68.40;;;;;;4897465;29;20115;-89
2022/04/26 14:12:59;;;;;;;1.92;1.40;;;17.30;68.00;;;;;;4887735;29;20059;-89
2022/04/26 14:23:47;;;;;;;2.00;1.90;;;17.50;67.00;;;;;;4919931;29;20102;-90
2022/04/26 14:26:16;;;;;;;4.35;1.60;;;17.60;67.10;;;;;;4905662;29;20553;-92
2022/04/26 14:36:05;;;;;;;2.08;1.88;;;17.40;64.70;;;;;;4825563;29;20080;-94
2022/04/26 14:38:31;;;;;;;1.27;1.17;;;17.10;65.60;;;;;;4808315;29;20064;-89
2022/04/26 14:40:56;;;;;;;2.05;1.13;;;17.00;66.80;;;;;;4862128;29;20084;-87
2022/04/26 14:43:22;;;;;;;2.15;1.50;;;16.80;66.20;;;;;;4907510;29;20051;-87
2022/04/26 14:45:50;;;;;;;4.40;1.63;;;17.00;66.60;;;;;;4902548;29;20049;-87
2022/04/26 14:48:16;;;;;;;4.63;1.50;;;17.00;66.90;;;;;;4887686;29;20043;-89
2022/04/26 14:50:43;;;;;;;3.40;1.25;;;17.10;67.00;;;;;;4926494;29;20043;-91
2022/04/26 14:53:13;;;;;;;6.85;1.38;;;17.00;66.70;;;;;;4926048;29;20062;-89
2022/04/26 14:55:38;;;;;;;3.33;0.93;;;16.90;66.80;;;;;;4929963;29;20478;-88
2022/04/26 14:58:06;;;;;;;1.60;1.48;;;17.10;66.60;;;;;;4906664;29;20186;-88
2022/04/26 15:00:35;;;;;;;2.33;1.67;;;16.80;66.90;;;;;;4894833;29;20055;-88
2022/04/26 15:03:00;;;;;;;1.63;1.52;;;17.10;67.20;;;;;;4906291;29;20138;-91
2022/04/26 15:05:26;;;;;;;1.35;1.15;;;16.90;67.40;;;;;;4888160;29;20545;-88
2022/04/26 15:10:36;;;;;;;2.38;1.70;;;17.00;68.30;;;;;;4918729;29;20058;-90
2022/04/26 15:18:30;;;;;;;5.15;2.03;;;16.70;68.50;;;;;;4917734;29;20043;-92
2022/04/26 15:20:56;;;;;;;2.85;1.20;;;16.70;68.50;;;;;;4920240;29;20046;-94
2022/04/26 15:23:23;;;;;;;1.58;1.48;;;16.60;68.80;;;;;;4904870;29;20191;-94
2022/04/26 15:25:52;;;;;;;2.75;1.40;;;16.50;67.90;;;;;;4918728;29;20127;-91
2022/04/26 15:28:21;;;;;;;3.22;1.50;;;16.10;68.00;;;;;;4904249;29;20044;-93
2022/04/26 15:30:48;;;;;;;4.00;2.00;;;16.00;68.60;;;;;;4920478;29;20047;-92
2022/04/26 15:33:14;;;;;;;2.42;1.85;;;15.90;69.00;;;;;;4887863;29;20047;-92
2022/04/26 15:35:42;;;;;;;1.52;1.27;;;15.90;69.30;;;;;;4905195;29;20058;-96
2022/04/26 15:38:10;;;;;;;2.72;1.70;;;15.80;69.60;;;;;;4900957;29;20126;-88
2022/04/26 15:40:39;;;;;;;1.50;1.40;;;15.60;69.80;;;;;;4916258;29;20075;-88
2022/04/26 15:43:05;;;;;;;2.60;1.58;;;15.60;70.00;;;;;;4915417;29;20051;-88
2022/04/26 15:45:32;;;;;;;1.45;1.33;;;15.40;70.40;;;;;;4885587;29;20050;-89
2022/04/26 15:47:57;;;;;;;3.45;2.47;;;15.20;70.10;;;;;;4918306;29;21638;-91
2022/04/26 15:50:24;;;;;;;2.20;1.43;;;15.10;70.20;;;;;;4902919;29;20043;-89
2022/04/26 15:52:50;;;;;;;1.95;1.40;;;15.00;70.60;;;;;;4907619;29;20303;-95
2022/04/26 15:55:21;;;;;;;;;;;14.90;70.50;;;;;;4905397;29;20051;-89
2022/04/26 15:57:47;;;;;;;1.50;1.33;;;14.70;71.10;;;;;;4908137;29;19926;-90
2022/04/26 16:00:21;;;;;;;1.48;1.38;;;14.60;70.90;;;;;;4903729;29;20046;-91
2022/04/26 16:02:51;;;;;;;1.95;1.75;;;14.50;71.10;;;;;;4906953;29;20099;-91
2022/04/26 16:05:24;;;;;;;2.58;1.73;;;14.40;71.60;;;;;;4905760;29;20131;-91
2022/04/26 16:07:51;;;;;;;1.73;1.30;;;14.40;72.00;;;;;;4920036;29;20052;-90
2022/04/26 16:21:25;;;;;;;1.25;1.15;;;14.60;71.50;;;;;;4906459;29;20059;-87
2022/04/26 16:23:54;;;;;;;1.60;1.48;;;14.50;71.70;;;;;;4906096;29;20087;-89
2022/04/26 16:26:22;;;;;;;2.55;1.55;;;14.60;73.00;;;;;;4906285;29;20121;-88
2022/04/26 16:28:51;;;;;;;4.65;1.63;;;14.40;73.50;;;;;;4906193;29;20051;-88
2022/04/26 16:31:27;;;;;;;1.80;1.30;;;14.20;73.40;;;;;;4907090;29;20047;-93
2022/04/26 16:34:05;;;;;;;3.08;1.77;;;14.90;74.20;;;;;;4907341;29;20050;-90
2022/04/26 16:36:31;;;;;;;2.42;1.80;;;14.10;74.10;;;;;;4906033;29;20047;-89
2022/04/26 16:39:00;;;;;;;1.95;1.67;;;13.90;74.40;;;;;;4918046;29;20052;-90
2022/04/26 16:41:26;;;;;;;1.67;1.55;;;13.90;74.80;;;;;;4890287;29;20055;-87
2022/04/26 16:43:52;;;;;;;4.65;2.00;;;13.70;74.80;;;;;;4923365;29;20482;-87
2022/04/26 16:46:22;;;;;;;2.22;2.10;;;13.60;75.10;;;;;;4907126;29;20087;-87
2022/04/26 16:48:49;;;;;;;1.88;1.60;;;13.70;75.40;;;;;;4920988;29;20059;-89
2022/04/26 16:51:15;;;;;;;3.75;1.45;;;13.50;75.50;;;;;;4889711;29;20521;-89
2022/04/26 16:53:47;;;;;;;2.17;1.97;;;13.60;76.20;;;;;;4905418;29;20056;-89
2022/04/26 16:56:13;;;;;;;3.03;1.92;;;13.50;75.70;;;;;;4919037;29;20051;-92
2022/04/26 16:58:39;;;;;;;1.00;1.00;;;13.40;76.00;;;;;;4890508;29;20465;-90
2022/04/26 17:01:05;;;;;;;1.77;1.40;;;13.20;75.80;;;;;;4907396;29;20292;-89
2022/04/26 17:03:31;;;;;;;2.53;1.48;;;13.20;75.80;;;;;;4916355;29;20166;-89
2022/04/26 17:09:46;;;;;;;1.92;1.60;;;13.10;76.40;;;;;;4879427;29;20043;-89
2022/04/26 17:12:15;;;;;;;2.50;2.30;;;13.10;77.10;;;;;;4918477;29;20142;-89
2022/04/26 17:14:52;;;;;;;3.35;1.83;;;12.90;78.00;;;;;;4928311;29;20067;-91
2022/04/26 17:17:21;;;;;;;5.78;2.28;;;12.80;77.30;;;;;;4909024;29;20078;-91
2022/04/26 17:19:57;;;;;;;1.73;1.52;;;12.70;77.60;;;;;;4907497;29;20044;-91
2022/04/26 17:22:26;;;;;;;1.63;1.35;;;12.60;77.80;;;;;;4904647;29;20040;-92
2022/04/26 17:25:14;;;;;;;2.88;1.52;;;11.70;78.10;;;;;;4901667;29;20118;-93
2022/04/26 17:28:02;;;;;;;;;;;12.40;79.60;;;;;;4920240;29;20405;-93
2022/04/26 17:30:56;;;;;;;1.77;1.55;;;12.20;80.20;;;;;;4919782;29;19931;-96
2022/04/26 17:52:34;;;;;;;1.38;1.27;;;11.20;82.10;;;;;;4769154;30;20039;-92
2022/04/26 17:58:02;;;;;;;2.15;1.95;;;11.60;82.80;;;;;;4810620;29;20499;-90
2022/04/26 18:00:29;;;;;;;1.97;1.70;;;11.50;83.30;;;;;;4865666;29;20080;-88
2022/04/26 18:02:54;;;;;;;3.63;2.17;;;11.30;83.40;;;;;;4881663;29;20073;-89
2022/04/26 18:05:25;;;;;;;2.50;1.87;;;11.20;83.80;;;;;;4880848;29;20451;-88